sensor_id;sensor_type;location;lat;lon;timestamp;pressure;altitude;pressure_sealevel;temperature;humidity
65666;BME280;52365;47.464;18.976;2024-01-30T00:00:13;102130.22;;;0.41;71.73
65666;BME280;52365;47.464;18.976;2024-01-30T00:00:34;102134.22;;;0.47;71.58
65666;BME280;52365;47.464;18.976;2024-01-30T00:00:55;102136.31;;;0.41;71.51
65666;BME280;52365;47.464;18.976;2024-01-30T00:01:16;102138.41;;;0.36;71.44
65666;BME280;52365;47.464;18.976;2024-01-30T00:01:37;102137.84;;;0.42;71.38
65666;BME280;52365;47.464;18.976;2024-01-30T00:01:58;102130.69;;;0.22;71.34
65666;BME280;52365;47.464;18.976;2024-01-30T00:02:19;102131.72;;;-0.12;71.99
65666;BME280;52365;47.464;18.976;2024-01-30T00:02:40;102136.50;;;-0.06;72.39
65666;BME280;52365;47.464;18.976;2024-01-30T00:02:55;102131.19;;;-0.06;72.54
65666;BME280;52365;47.464;18.976;2024-01-30T00:03:16;102132.31;;;-0.07;72.61
65666;BME280;52365;47.464;18.976;2024-01-30T00:03:37;102126.56;;;-0.09;72.82
65666;BME280;52365;47.464;18.976;2024-01-30T00:03:58;102127.19;;;-0.12;72.99
65666;BME280;52365;47.464;18.976;2024-01-30T00:04:19;102124.69;;;-0.08;72.92
65666;BME280;52365;47.464;18.976;2024-01-30T00:04:40;102130.91;;;-0.04;72.92
65666;BME280;52365;47.464;18.976;2024-01-30T00:05:01;102131.19;;;-0.06;72.98
65666;BME280;52365;47.464;18.976;2024-01-30T00:05:24;102127.44;;;0.16;72.87
65666;BME280;52365;47.464;18.976;2024-01-30T00:05:45;102130.03;;;0.25;72.53
65666;BME280;52365;47.464;18.976;2024-01-30T00:06:06;102127.59;;;0.20;72.35
65666;BME280;52365;47.464;18.976;2024-01-30T00:06:22;102136.59;;;0.28;72.12
65666;BME280;52365;47.464;18.976;2024-01-30T00:06:44;102120.47;;;0.33;71.98
65666;BME280;52365;47.464;18.976;2024-01-30T00:07:05;102127.31;;;0.34;71.80
65666;BME280;52365;47.464;18.976;2024-01-30T00:07:26;102137.88;;;0.21;71.66
65666;BME280;52365;47.464;18.976;2024-01-30T00:07:47;102132.19;;;0.11;71.66
65666;BME280;52365;47.464;18.976;2024-01-30T00:08:08;102134.25;;;0.05;71.73
65666;BME280;52365;47.464;18.976;2024-01-30T00:08:29;102123.66;;;0.05;71.79
65666;BME280;52365;47.464;18.976;2024-01-30T00:08:45;102128.63;;;0.07;71.89
65666;BME280;52365;47.464;18.976;2024-01-30T00:09:09;102133.16;;;0.06;71.95
65666;BME280;52365;47.464;18.976;2024-01-30T00:09:31;102136.72;;;0.10;72.03
65666;BME280;52365;47.464;18.976;2024-01-30T00:09:52;102134.00;;;0.19;72.00
65666;BME280;52365;47.464;18.976;2024-01-30T00:10:13;102127.44;;;0.16;71.91
65666;BME280;52365;47.464;18.976;2024-01-30T00:10:34;102134.13;;;0.22;71.88
65666;BME280;52365;47.464;18.976;2024-01-30T00:10:55;102130.88;;;0.38;71.77
65666;BME280;52365;47.464;18.976;2024-01-30T00:11:16;102131.06;;;0.33;71.50
65666;BME280;52365;47.464;18.976;2024-01-30T00:11:37;102129.25;;;0.24;71.48
65666;BME280;52365;47.464;18.976;2024-01-30T00:11:53;102127.53;;;0.29;71.51
65666;BME280;52365;47.464;18.976;2024-01-30T00:12:14;102126.03;;;0.40;71.54
65666;BME280;52365;47.464;18.976;2024-01-30T00:12:35;102132.44;;;0.18;71.22
65666;BME280;52365;47.464;18.976;2024-01-30T00:12:56;102138.44;;;0.06;71.24
65666;BME280;52365;47.464;18.976;2024-01-30T00:13:17;102132.50;;;0.09;71.32
65666;BME280;52365;47.464;18.976;2024-01-30T00:13:40;102137.41;;;0.19;71.43
65666;BME280;52365;47.464;18.976;2024-01-30T00:14:00;102139.38;;;0.31;71.34
65666;BME280;52365;47.464;18.976;2024-01-30T00:14:21;102132.97;;;0.32;71.18
65666;BME280;52365;47.464;18.976;2024-01-30T00:14:42;102137.69;;;0.27;71.13
65666;BME280;52365;47.464;18.976;2024-01-30T00:15:06;102129.25;;;0.24;71.10
65666;BME280;52365;47.464;18.976;2024-01-30T00:15:25;102134.97;;;0.14;71.33
65666;BME280;52365;47.464;18.976;2024-01-30T00:15:46;102131.59;;;0.05;71.62
65666;BME280;52365;47.464;18.976;2024-01-30T00:16:07;102134.06;;;0.10;71.69
65666;BME280;52365;47.464;18.976;2024-01-30T00:16:29;102133.78;;;0.24;71.61
65666;BME280;52365;47.464;18.976;2024-01-30T00:16:53;102132.97;;;0.11;71.77
65666;BME280;52365;47.464;18.976;2024-01-30T00:17:09;102131.91;;;0.24;71.73
65666;BME280;52365;47.464;18.976;2024-01-30T00:17:30;102135.69;;;0.23;71.69
65666;BME280;52365;47.464;18.976;2024-01-30T00:17:51;102136.66;;;0.19;71.68
65666;BME280;52365;47.464;18.976;2024-01-30T00:18:13;102128.50;;;0.03;71.83
65666;BME280;52365;47.464;18.976;2024-01-30T00:18:34;102130.91;;;-0.04;71.92
65666;BME280;52365;47.464;18.976;2024-01-30T00:18:55;102131.66;;;0.17;72.01
65666;BME280;52365;47.464;18.976;2024-01-30T00:19:17;102133.03;;;0.23;71.79
65666;BME280;52365;47.464;18.976;2024-01-30T00:19:38;102127.31;;;0.13;71.45
65666;BME280;52365;47.464;18.976;2024-01-30T00:19:59;102133.41;;;0.13;71.38
65666;BME280;52365;47.464;18.976;2024-01-30T00:20:20;102130.94;;;0.08;71.32
65666;BME280;52365;47.464;18.976;2024-01-30T00:20:36;102132.88;;;-0.01;71.47
65666;BME280;52365;47.464;18.976;2024-01-30T00:20:57;102129.53;;;0.11;71.56
65666;BME280;52365;47.464;18.976;2024-01-30T00:21:13;102131.97;;;0.16;71.52
65666;BME280;52365;47.464;18.976;2024-01-30T00:21:34;102136.19;;;0.17;71.44
65666;BME280;52365;47.464;18.976;2024-01-30T00:21:55;102124.09;;;0.07;71.54
65666;BME280;52365;47.464;18.976;2024-01-30T00:22:16;102128.22;;;0.17;71.50
65666;BME280;52365;47.464;18.976;2024-01-30T00:22:37;102134.78;;;0.19;71.39
65666;BME280;52365;47.464;18.976;2024-01-30T00:22:57;102129.66;;;0.14;71.31
65666;BME280;52365;47.464;18.976;2024-01-30T00:23:18;102135.22;;;0.21;71.27
65666;BME280;52365;47.464;18.976;2024-01-30T00:23:39;102137.22;;;0.24;71.21
65666;BME280;52365;47.464;18.976;2024-01-30T00:24:00;102134.19;;;0.14;71.33
65666;BME280;52365;47.464;18.976;2024-01-30T00:24:21;102132.97;;;0.11;71.29
65666;BME280;52365;47.464;18.976;2024-01-30T00:24:42;102134.63;;;0.16;71.28
65666;BME280;52365;47.464;18.976;2024-01-30T00:25:03;102138.06;;;0.16;71.23
65666;BME280;52365;47.464;18.976;2024-01-30T00:25:25;102140.91;;;0.11;71.25
65666;BME280;52365;47.464;18.976;2024-01-30T00:25:46;102138.31;;;0.23;71.20
65666;BME280;52365;47.464;18.976;2024-01-30T00:26:07;102137.50;;;0.32;71.06
65666;BME280;52365;47.464;18.976;2024-01-30T00:26:28;102137.41;;;0.40;70.88
65666;BME280;52365;47.464;18.976;2024-01-30T00:26:49;102141.69;;;0.33;70.78
65666;BME280;52365;47.464;18.976;2024-01-30T00:27:09;102130.03;;;0.25;70.72
65666;BME280;52365;47.464;18.976;2024-01-30T00:27:30;102138.56;;;0.31;70.73
65666;BME280;52365;47.464;18.976;2024-01-30T00:27:51;102136.25;;;0.29;70.73
65666;BME280;52365;47.464;18.976;2024-01-30T00:28:12;102137.88;;;0.21;70.80
65666;BME280;52365;47.464;18.976;2024-01-30T00:28:33;102139.88;;;0.24;70.83
65666;BME280;52365;47.464;18.976;2024-01-30T00:28:49;102132.13;;;0.19;70.86
65666;BME280;52365;47.464;18.976;2024-01-30T00:29:10;102136.78;;;0.22;70.83
65666;BME280;52365;47.464;18.976;2024-01-30T00:29:31;102137.41;;;0.19;70.93
65666;BME280;52365;47.464;18.976;2024-01-30T00:29:54;102138.06;;;0.16;71.05
65666;BME280;52365;47.464;18.976;2024-01-30T00:30:15;102145.31;;;0.07;71.19
65666;BME280;52365;47.464;18.976;2024-01-30T00:30:36;102142.59;;;0.16;71.25
65666;BME280;52365;47.464;18.976;2024-01-30T00:30:57;102140.41;;;0.18;71.20
65666;BME280;52365;47.464;18.976;2024-01-30T00:31:18;102145.81;;;0.21;71.02
65666;BME280;52365;47.464;18.976;2024-01-30T00:31:38;102136.59;;;0.28;70.87
65666;BME280;52365;47.464;18.976;2024-01-30T00:31:54;102139.09;;;0.24;70.83
65666;BME280;52365;47.464;18.976;2024-01-30T00:32:15;102143.50;;;0.20;70.87
65666;BME280;52365;47.464;18.976;2024-01-30T00:32:37;102142.72;;;0.19;70.94
65666;BME280;52365;47.464;18.976;2024-01-30T00:32:53;102139.38;;;0.10;70.89
65666;BME280;52365;47.464;18.976;2024-01-30T00:33:14;102146.84;;;0.08;70.97
65666;BME280;52365;47.464;18.976;2024-01-30T00:33:36;102142.31;;;0.09;71.03
65666;BME280;52365;47.464;18.976;2024-01-30T00:33:57;102144.34;;;0.12;71.07
65666;BME280;52365;47.464;18.976;2024-01-30T00:34:18;102143.22;;;0.13;71.03
65666;BME280;52365;47.464;18.976;2024-01-30T00:34:39;102146.22;;;0.11;70.95
65666;BME280;52365;47.464;18.976;2024-01-30T00:35:00;102149.50;;;0.29;70.94
65666;BME280;52365;47.464;18.976;2024-01-30T00:35:21;102148.31;;;0.27;70.82
65666;BME280;52365;47.464;18.976;2024-01-30T00:35:43;102148.31;;;0.27;70.69
65666;BME280;52365;47.464;18.976;2024-01-30T00:36:08;102144.66;;;0.10;70.67
65666;BME280;52365;47.464;18.976;2024-01-30T00:36:29;102147.88;;;-0.05;70.76
65666;BME280;52365;47.464;18.976;2024-01-30T00:36:51;102150.62;;;-0.22;70.93
65666;BME280;52365;47.464;18.976;2024-01-30T00:37:11;102146.06;;;-0.13;71.21
65666;BME280;52365;47.464;18.976;2024-01-30T00:37:32;102147.03;;;0.03;71.26
65666;BME280;52365;47.464;18.976;2024-01-30T00:37:53;102142.72;;;0.19;71.08
65666;BME280;52365;47.464;18.976;2024-01-30T00:38:14;102146.41;;;0.27;70.82
65666;BME280;52365;47.464;18.976;2024-01-30T00:38:35;102144.34;;;0.33;70.60
65666;BME280;52365;47.464;18.976;2024-01-30T00:38:56;102137.28;;;0.37;70.33
65666;BME280;52365;47.464;18.976;2024-01-30T00:39:17;102146.53;;;0.31;70.16
65666;BME280;52365;47.464;18.976;2024-01-30T00:39:40;102145.44;;;0.32;70.13
65666;BME280;52365;47.464;18.976;2024-01-30T00:40:01;102133.41;;;0.34;70.06
65666;BME280;52365;47.464;18.976;2024-01-30T00:40:22;102147.63;;;0.30;70.08
65666;BME280;52365;47.464;18.976;2024-01-30T00:40:43;102136.84;;;0.14;70.37
65666;BME280;52365;47.464;18.976;2024-01-30T00:40:59;102139.44;;;0.02;70.80
65666;BME280;52365;47.464;18.976;2024-01-30T00:41:20;102147.19;;;0.07;70.91
65666;BME280;52365;47.464;18.976;2024-01-30T00:41:41;102146.84;;;0.08;70.96
65666;BME280;52365;47.464;18.976;2024-01-30T00:42:02;102147.25;;;-0.02;71.09
65666;BME280;52365;47.464;18.976;2024-01-30T00:42:23;102150.56;;;-0.35;71.62
65666;BME280;52365;47.464;18.976;2024-01-30T00:42:44;102147.72;;;-0.59;72.34
65666;BME280;52365;47.464;18.976;2024-01-30T00:43:05;102152.63;;;-0.79;72.89
65666;BME280;52365;47.464;18.976;2024-01-30T00:43:26;102145.75;;;-0.41;73.21
65666;BME280;52365;47.464;18.976;2024-01-30T00:43:47;102152.94;;;-0.12;72.84
65666;BME280;52365;47.464;18.976;2024-01-30T00:44:08;102151.91;;;0.01;72.34
65666;BME280;52365;47.464;18.976;2024-01-30T00:44:29;102151.91;;;0.01;71.93
65666;BME280;52365;47.464;18.976;2024-01-30T00:44:50;102148.41;;;-0.12;71.80
65666;BME280;52365;47.464;18.976;2024-01-30T00:45:13;102147.59;;;-0.33;71.90
65666;BME280;52365;47.464;18.976;2024-01-30T00:45:34;102145.13;;;-0.38;72.10
65666;BME280;52365;47.464;18.976;2024-01-30T00:45:55;102148.25;;;-0.15;72.21
65666;BME280;52365;47.464;18.976;2024-01-30T00:46:16;102149.16;;;-0.11;72.10
65666;BME280;52365;47.464;18.976;2024-01-30T00:46:37;102156.66;;;-0.13;72.04
65666;BME280;52365;47.464;18.976;2024-01-30T00:46:58;102149.75;;;-0.35;72.35
65666;BME280;52365;47.464;18.976;2024-01-30T00:47:19;102146.38;;;-0.44;72.46
65666;BME280;52365;47.464;18.976;2024-01-30T00:47:39;102147.66;;;-0.51;72.58
65666;BME280;52365;47.464;18.976;2024-01-30T00:48:00;102149.84;;;-0.44;72.71
65666;BME280;52365;47.464;18.976;2024-01-30T00:48:21;102149.22;;;-0.20;72.58
65666;BME280;52365;47.464;18.976;2024-01-30T00:48:42;102147.28;;;-0.11;72.29
65666;BME280;52365;47.464;18.976;2024-01-30T00:49:03;102147.25;;;-0.02;71.98
65666;BME280;52365;47.464;18.976;2024-01-30T00:49:24;102152.03;;;0.05;71.71
65666;BME280;52365;47.464;18.976;2024-01-30T00:49:45;102148.09;;;0.11;71.57
65666;BME280;52365;47.464;18.976;2024-01-30T00:50:06;102148.25;;;-0.15;71.66
65666;BME280;52365;47.464;18.976;2024-01-30T00:50:27;102150.19;;;-0.24;71.91
65666;BME280;52365;47.464;18.976;2024-01-30T00:50:48;102152.37;;;-0.27;72.07
65666;BME280;52365;47.464;18.976;2024-01-30T00:51:04;102144.16;;;-0.04;71.98
65666;BME280;52365;47.464;18.976;2024-01-30T00:51:20;102151.25;;;0.04;71.82
65666;BME280;52365;47.464;18.976;2024-01-30T00:51:41;102155.91;;;0.07;71.63
65666;BME280;52365;47.464;18.976;2024-01-30T00:52:02;102153.00;;;0.00;71.70
65666;BME280;52365;47.464;18.976;2024-01-30T00:52:24;102148.94;;;0.03;71.63
65666;BME280;52365;47.464;18.976;2024-01-30T00:52:45;102148.59;;;0.04;71.51
65666;BME280;52365;47.464;18.976;2024-01-30T00:53:06;102146.75;;;0.05;71.39
65666;BME280;52365;47.464;18.976;2024-01-30T00:53:22;102147.97;;;0.07;71.34
65666;BME280;52365;47.464;18.976;2024-01-30T00:53:43;102145.31;;;0.07;71.29
65666;BME280;52365;47.464;18.976;2024-01-30T00:54:04;102147.72;;;0.00;71.33
65666;BME280;52365;47.464;18.976;2024-01-30T00:54:26;102151.25;;;0.04;71.36
65666;BME280;52365;47.464;18.976;2024-01-30T00:54:47;102144.03;;;0.13;71.27
65666;BME280;52365;47.464;18.976;2024-01-30T00:55:08;102142.94;;;0.14;71.25
65666;BME280;52365;47.464;18.976;2024-01-30T00:55:29;102149.84;;;0.07;71.34
65666;BME280;52365;47.464;18.976;2024-01-30T00:55:50;102149.06;;;0.27;71.25
65666;BME280;52365;47.464;18.976;2024-01-30T00:56:11;102147.12;;;0.36;70.79
65666;BME280;52365;47.464;18.976;2024-01-30T00:56:32;102144.53;;;0.48;70.42
65666;BME280;52365;47.464;18.976;2024-01-30T00:56:53;102143.94;;;0.43;69.93
65666;BME280;52365;47.464;18.976;2024-01-30T00:57:14;102144.16;;;-0.04;70.35
65666;BME280;52365;47.464;18.976;2024-01-30T00:57:35;102141.44;;;0.05;70.62
65666;BME280;52365;47.464;18.976;2024-01-30T00:57:56;102138.41;;;0.15;70.67
65666;BME280;52365;47.464;18.976;2024-01-30T00:58:17;102148.81;;;0.20;70.61
65666;BME280;52365;47.464;18.976;2024-01-30T00:58:39;102140.41;;;0.18;70.58
65666;BME280;52365;47.464;18.976;2024-01-30T00:59:00;102139.59;;;0.17;70.53
65666;BME280;52365;47.464;18.976;2024-01-30T00:59:21;102142.25;;;0.17;70.58
65666;BME280;52365;47.464;18.976;2024-01-30T00:59:42;102136.06;;;0.13;70.59
65666;BME280;52365;47.464;18.976;2024-01-30T01:00:04;102133.53;;;0.17;70.58
65666;BME280;52365;47.464;18.976;2024-01-30T01:00:27;102143.38;;;0.16;70.56
65666;BME280;52365;47.464;18.976;2024-01-30T01:00:49;102143.84;;;0.18;70.58
65666;BME280;52365;47.464;18.976;2024-01-30T01:01:10;102135.75;;;0.15;70.56
65666;BME280;52365;47.464;18.976;2024-01-30T01:01:31;102137.81;;;0.09;70.64
65666;BME280;52365;47.464;18.976;2024-01-30T01:01:52;102144.47;;;0.15;70.67
65666;BME280;52365;47.464;18.976;2024-01-30T01:02:13;102137.75;;;0.18;70.62
65666;BME280;52365;47.464;18.976;2024-01-30T01:02:35;102137.81;;;0.09;70.52
65666;BME280;52365;47.464;18.976;2024-01-30T01:02:56;102138.19;;;-0.01;70.61
65666;BME280;52365;47.464;18.976;2024-01-30T01:03:12;102139.88;;;-0.17;70.85
65666;BME280;52365;47.464;18.976;2024-01-30T01:03:34;102138.34;;;-0.27;71.15
65666;BME280;52365;47.464;18.976;2024-01-30T01:03:55;102135.88;;;-0.32;71.58
65666;BME280;52365;47.464;18.976;2024-01-30T01:04:16;102141.94;;;-0.32;71.82
65666;BME280;52365;47.464;18.976;2024-01-30T01:04:38;102142.56;;;-0.26;71.90
65666;BME280;52365;47.464;18.976;2024-01-30T01:04:59;102141.28;;;-0.20;71.84
65666;BME280;52365;47.464;18.976;2024-01-30T01:05:15;102139.19;;;-0.14;71.79
65666;BME280;52365;47.464;18.976;2024-01-30T01:05:36;102137.03;;;-0.12;71.77
65666;BME280;52365;47.464;18.976;2024-01-30T01:05:56;102140.44;;;-0.12;71.69
65666;BME280;52365;47.464;18.976;2024-01-30T01:06:17;102140.25;;;-0.07;71.60
65666;BME280;52365;47.464;18.976;2024-01-30T01:06:38;102142.56;;;-0.05;71.48
65666;BME280;52365;47.464;18.976;2024-01-30T01:06:59;102136.06;;;-0.08;71.60
65666;BME280;52365;47.464;18.976;2024-01-30T01:07:20;102137.28;;;-0.05;71.56
65666;BME280;52365;47.464;18.976;2024-01-30T01:07:36;102142.13;;;-0.07;71.50
65666;BME280;52365;47.464;18.976;2024-01-30T01:07:57;102144.78;;;-0.07;71.44
65666;BME280;52365;47.464;18.976;2024-01-30T01:08:18;102136.81;;;-0.07;71.43
65666;BME280;52365;47.464;18.976;2024-01-30T01:08:34;102145.69;;;-0.03;71.35
65666;BME280;52365;47.464;18.976;2024-01-30T01:08:50;102136.31;;;-0.01;71.27
65666;BME280;52365;47.464;18.976;2024-01-30T01:09:11;102136.50;;;-0.06;71.13
65666;BME280;52365;47.464;18.976;2024-01-30T01:09:32;102137.47;;;-0.10;71.02
65666;BME280;52365;47.464;18.976;2024-01-30T01:09:53;102142.63;;;-0.35;71.12
65666;BME280;52365;47.464;18.976;2024-01-30T01:10:16;102143.06;;;-0.33;71.32
65666;BME280;52365;47.464;18.976;2024-01-30T01:10:37;102137.16;;;-0.09;71.45
65666;BME280;52365;47.464;18.976;2024-01-30T01:10:58;102137.09;;;0.00;71.29
65666;BME280;52365;47.464;18.976;2024-01-30T01:11:19;102132.50;;;0.09;71.07
65666;BME280;52365;47.464;18.976;2024-01-30T01:11:40;102132.31;;;0.14;70.86
65666;BME280;52365;47.464;18.976;2024-01-30T01:12:02;102134.06;;;0.10;70.72
65666;BME280;52365;47.464;18.976;2024-01-30T01:12:23;102138.03;;;-0.05;70.75
65666;BME280;52365;47.464;18.976;2024-01-30T01:12:45;102133.12;;;-0.15;70.92
65666;BME280;52365;47.464;18.976;2024-01-30T01:13:06;102138.09;;;-0.13;71.03
65666;BME280;52365;47.464;18.976;2024-01-30T01:13:27;102132.88;;;-0.22;71.32
65666;BME280;52365;47.464;18.976;2024-01-30T01:13:48;102133.41;;;-0.08;71.37
65666;BME280;52365;47.464;18.976;2024-01-30T01:14:09;102133.94;;;0.07;71.20
65666;BME280;52365;47.464;18.976;2024-01-30T01:14:30;102134.69;;;0.07;71.01
65666;BME280;52365;47.464;18.976;2024-01-30T01:14:51;102139.38;;;0.10;70.83
65666;BME280;52365;47.464;18.976;2024-01-30T01:15:12;102131.59;;;0.05;70.72
65666;BME280;52365;47.464;18.976;2024-01-30T01:15:33;102135.66;;;0.03;70.69
65666;BME280;52365;47.464;18.976;2024-01-30T01:15:53;102134.19;;;-0.07;70.84
65666;BME280;52365;47.464;18.976;2024-01-30T01:16:15;102138.72;;;-0.08;70.95
65666;BME280;52365;47.464;18.976;2024-01-30T01:16:36;102123.66;;;0.05;70.91
65666;BME280;52365;47.464;18.976;2024-01-30T01:16:58;102128.19;;;0.05;70.83
65666;BME280;52365;47.464;18.976;2024-01-30T01:17:19;102132.25;;;0.02;70.83
65666;BME280;52365;47.464;18.976;2024-01-30T01:17:40;102130.56;;;-0.03;70.77
65666;BME280;52365;47.464;18.976;2024-01-30T01:17:56;102131.06;;;-0.09;70.80
65666;BME280;52365;47.464;18.976;2024-01-30T01:18:17;102126.44;;;-0.12;70.86
65666;BME280;52365;47.464;18.976;2024-01-30T01:18:38;102125.66;;;-0.13;70.91
65666;BME280;52365;47.464;18.976;2024-01-30T01:18:59;102131.87;;;-0.09;70.93
65666;BME280;52365;47.464;18.976;2024-01-30T01:19:21;102130.41;;;-0.06;70.91
65666;BME280;52365;47.464;18.976;2024-01-30T01:19:42;102134.00;;;-0.02;70.88
65666;BME280;52365;47.464;18.976;2024-01-30T01:20:03;102130.28;;;-0.10;70.97
65666;BME280;52365;47.464;18.976;2024-01-30T01:20:26;102132.75;;;-0.05;70.98
65666;BME280;52365;47.464;18.976;2024-01-30T01:20:47;102133.22;;;-0.03;70.92
65666;BME280;52365;47.464;18.976;2024-01-30T01:21:08;102131.34;;;-0.02;70.90
65666;BME280;52365;47.464;18.976;2024-01-30T01:21:28;102126.22;;;-0.07;70.93
65666;BME280;52365;47.464;18.976;2024-01-30T01:21:49;102133.28;;;-0.11;70.98
65666;BME280;52365;47.464;18.976;2024-01-30T01:22:10;102127.06;;;-0.15;71.10
65666;BME280;52365;47.464;18.976;2024-01-30T01:22:32;102127.09;;;-0.24;71.31
65666;BME280;52365;47.464;18.976;2024-01-30T01:22:53;102126.66;;;-0.26;71.47
65666;BME280;52365;47.464;18.976;2024-01-30T01:23:14;102124.66;;;-0.29;71.60
65666;BME280;52365;47.464;18.976;2024-01-30T01:23:35;102128.22;;;-0.25;71.64
65666;BME280;52365;47.464;18.976;2024-01-30T01:23:56;102127.06;;;-0.15;71.54
65666;BME280;52365;47.464;18.976;2024-01-30T01:24:17;102126.22;;;-0.07;71.41
65666;BME280;52365;47.464;18.976;2024-01-30T01:24:38;102127.91;;;-0.03;71.25
65666;BME280;52365;47.464;18.976;2024-01-30T01:25:00;102131.59;;;0.05;71.07
65666;BME280;52365;47.464;18.976;2024-01-30T01:25:21;102127.72;;;0.03;70.99
65666;BME280;52365;47.464;18.976;2024-01-30T01:25:42;102127.84;;;0.06;70.93
65666;BME280;52365;47.464;18.976;2024-01-30T01:26:04;102131.81;;;0.00;70.96
65666;BME280;52365;47.464;18.976;2024-01-30T01:26:26;102131.97;;;-0.05;71.08
65666;BME280;52365;47.464;18.976;2024-01-30T01:26:47;102133.28;;;-0.11;71.14
65666;BME280;52365;47.464;18.976;2024-01-30T01:27:08;102125.03;;;-0.18;71.20
65666;BME280;52365;47.464;18.976;2024-01-30T01:27:29;102125.22;;;-0.23;71.31
65666;BME280;52365;47.464;18.976;2024-01-30T01:27:50;102126.66;;;-0.26;71.35
65666;BME280;52365;47.464;18.976;2024-01-30T01:28:13;102117.87;;;-0.18;71.43
65666;BME280;52365;47.464;18.976;2024-01-30T01:28:34;102123.31;;;-0.14;71.45
65666;BME280;52365;47.464;18.976;2024-01-30T01:28:50;102123.09;;;-0.09;71.36
65666;BME280;52365;47.464;18.976;2024-01-30T01:29:11;102127.12;;;-0.03;71.27
65666;BME280;52365;47.464;18.976;2024-01-30T01:29:32;102123.06;;;-0.01;71.17
65666;BME280;52365;47.464;18.976;2024-01-30T01:29:53;102115.63;;;-0.07;71.10
65666;BME280;52365;47.464;18.976;2024-01-30T01:30:14;102126.09;;;-0.11;71.13
65666;BME280;52365;47.464;18.976;2024-01-30T01:30:42;102126.66;;;-0.05;71.10
65666;BME280;52365;47.464;18.976;2024-01-30T01:31:03;102125.84;;;0.03;71.01
65666;BME280;52365;47.464;18.976;2024-01-30T01:31:25;102121.00;;;0.05;70.94
65666;BME280;52365;47.464;18.976;2024-01-30T01:31:50;102128.06;;;0.01;70.89
65666;BME280;52365;47.464;18.976;2024-01-30T01:32:11;102121.69;;;-0.07;71.02
65666;BME280;52365;47.464;18.976;2024-01-30T01:32:32;102119.19;;;-0.03;71.10
65666;BME280;52365;47.464;18.976;2024-01-30T01:32:53;102119.56;;;0.08;71.00
65666;BME280;52365;47.464;18.976;2024-01-30T01:33:17;102111.41;;;0.13;70.86
65666;BME280;52365;47.464;18.976;2024-01-30T01:33:38;102118.84;;;0.19;70.71
65666;BME280;52365;47.464;18.976;2024-01-30T01:33:59;102119.06;;;0.14;70.68
65666;BME280;52365;47.464;18.976;2024-01-30T01:34:20;102121.25;;;0.12;70.73
65666;BME280;52365;47.464;18.976;2024-01-30T01:34:41;102118.66;;;0.04;70.79
65666;BME280;52365;47.464;18.976;2024-01-30T01:35:02;102117.44;;;0.01;70.93
65666;BME280;52365;47.464;18.976;2024-01-30T01:35:23;102119.44;;;0.04;70.93
65666;BME280;52365;47.464;18.976;2024-01-30T01:35:48;102125.84;;;0.03;70.97
65666;BME280;52365;47.464;18.976;2024-01-30T01:36:09;102116.97;;;-0.01;71.00
65666;BME280;52365;47.464;18.976;2024-01-30T01:36:30;102121.00;;;0.05;70.96
65666;BME280;52365;47.464;18.976;2024-01-30T01:36:51;102126.16;;;0.02;70.86
65666;BME280;52365;47.464;18.976;2024-01-30T01:37:12;102116.00;;;0.04;70.85
65666;BME280;52365;47.464;18.976;2024-01-30T01:37:33;102118.94;;;0.11;70.80
65666;BME280;52365;47.464;18.976;2024-01-30T01:37:54;102118.94;;;0.11;70.71
65666;BME280;52365;47.464;18.976;2024-01-30T01:38:15;102122.41;;;0.03;70.61
65666;BME280;52365;47.464;18.976;2024-01-30T01:38:36;102114.19;;;-0.26;70.57
65666;BME280;52365;47.464;18.976;2024-01-30T01:38:57;102119.78;;;-0.27;70.76
65666;BME280;52365;47.464;18.976;2024-01-30T01:39:18;102118.25;;;-0.28;70.79
65666;BME280;52365;47.464;18.976;2024-01-30T01:39:39;102119.53;;;-0.13;70.96
65666;BME280;52365;47.464;18.976;2024-01-30T01:39:55;102114.38;;;-0.10;70.88
65666;BME280;52365;47.464;18.976;2024-01-30T01:40:16;102120.34;;;-0.13;70.75
65666;BME280;52365;47.464;18.976;2024-01-30T01:40:37;102118.88;;;-0.31;70.79
65666;BME280;52365;47.464;18.976;2024-01-30T01:41:00;102115.94;;;-0.30;70.95
65666;BME280;52365;47.464;18.976;2024-01-30T01:41:21;102115.81;;;-0.12;71.01
65666;BME280;52365;47.464;18.976;2024-01-30T01:41:42;102110.41;;;0.05;70.80
65666;BME280;52365;47.464;18.976;2024-01-30T01:42:03;102118.78;;;-0.14;70.82
65666;BME280;52365;47.464;18.976;2024-01-30T01:42:24;102108.41;;;-0.28;70.94
65666;BME280;52365;47.464;18.976;2024-01-30T01:42:45;102115.41;;;-0.44;71.11
65666;BME280;52365;47.464;18.976;2024-01-30T01:43:06;102115.44;;;-0.53;71.83
65666;BME280;52365;47.464;18.976;2024-01-30T01:43:27;102120.22;;;-0.46;72.04
65666;BME280;52365;47.464;18.976;2024-01-30T01:43:48;102124.06;;;-0.35;72.04
65666;BME280;52365;47.464;18.976;2024-01-30T01:44:09;102119.41;;;-0.38;72.12
65666;BME280;52365;47.464;18.976;2024-01-30T01:44:27;102117.66;;;-0.34;72.08
65666;BME280;52365;47.464;18.976;2024-01-30T01:44:48;102116.91;;;-0.34;72.11
65666;BME280;52365;47.464;18.976;2024-01-30T01:45:11;102114.69;;;-0.62;72.14
65666;BME280;52365;47.464;18.976;2024-01-30T01:45:34;102118.03;;;-0.73;72.26
65666;BME280;52365;47.464;18.976;2024-01-30T01:45:50;102114.75;;;-0.79;72.50
65666;BME280;52365;47.464;18.976;2024-01-30T01:46:11;102116.00;;;-0.77;72.58
65666;BME280;52365;47.464;18.976;2024-01-30T01:46:33;102116.56;;;-0.62;72.55
65666;BME280;52365;47.464;18.976;2024-01-30T01:46:54;102121.00;;;-0.45;72.36
65666;BME280;52365;47.464;18.976;2024-01-30T01:47:11;102120.22;;;-0.46;72.34
65666;BME280;52365;47.464;18.976;2024-01-30T01:47:31;102121.47;;;-0.43;72.33
65666;BME280;52365;47.464;18.976;2024-01-30T01:47:53;102122.63;;;-0.32;72.08
65666;BME280;52365;47.464;18.976;2024-01-30T01:48:14;102113.53;;;-0.22;71.81